createdAt,value
2019-06-08T00:01:22.905Z,98628.00
2019-06-08T00:03:52.706Z,98627.00
2019-06-08T00:06:23.013Z,98626.00
2019-06-08T00:08:52.945Z,98633.00
2019-06-08T00:11:23.426Z,98631.00
2019-06-08T00:13:53.371Z,98634.00
2019-06-08T00:16:23.812Z,98635.00
2019-06-08T00:18:53.733Z,98633.00
2019-06-08T00:21:24.131Z,98638.00
2019-06-08T00:23:57.849Z,98635.00
2019-06-08T00:26:27.526Z,98637.00
2019-06-08T00:28:57.844Z,98639.00
2019-06-08T00:31:27.588Z,98642.00
2019-06-08T00:33:57.273Z,98642.00
2019-06-08T00:36:26.956Z,98637.00
2019-06-08T00:38:56.738Z,98638.00
2019-06-08T00:41:26.709Z,98635.00
2019-06-08T00:43:56.794Z,98630.00
2019-06-08T00:46:26.495Z,98639.00
2019-06-08T00:48:56.303Z,98639.00
2019-06-08T00:51:26.080Z,98644.00
2019-06-08T00:53:55.727Z,98644.00
2019-06-08T00:56:26.638Z,98646.00
2019-06-08T00:58:56.343Z,98656.00
2019-06-08T01:01:28.255Z,98660.00
2019-06-08T01:03:58.067Z,98660.00
2019-06-08T01:06:29.942Z,98663.00
2019-06-08T01:08:59.599Z,98662.00
2019-06-08T01:11:29.539Z,98664.00
2019-06-08T01:14:00.707Z,98663.00
2019-06-08T01:16:30.526Z,98660.00
2019-06-08T01:19:00.215Z,98662.00
2019-06-08T01:21:30.244Z,98656.00
2019-06-08T01:23:59.945Z,98664.00
2019-06-08T01:26:30.145Z,98666.00
2019-06-08T01:29:01.712Z,98651.00
2019-06-08T01:31:34.314Z,98665.00
2019-06-08T01:34:04.887Z,98670.00
2019-06-08T01:36:34.606Z,98667.00
2019-06-08T01:39:07.725Z,98672.00
2019-06-08T01:41:37.440Z,98672.00
2019-06-08T01:44:07.108Z,98675.00
2019-06-08T01:46:36.809Z,98678.00
2019-06-08T01:49:07.268Z,98683.00
2019-06-08T01:51:38.398Z,98690.00
2019-06-08T01:54:08.243Z,98688.00
2019-06-08T01:56:38.418Z,98699.00
2019-06-08T01:59:08.154Z,98692.00
2019-06-08T02:01:37.912Z,98696.00
2019-06-08T02:04:07.574Z,98693.00
2019-06-08T02:06:37.262Z,98681.00
2019-06-08T02:09:09.880Z,98682.00
2019-06-08T02:11:40.031Z,98683.00
2019-06-08T02:14:09.702Z,98687.00
2019-06-08T02:16:39.387Z,98692.00
2019-06-08T02:19:09.058Z,98691.00
2019-06-08T02:21:39.110Z,98699.00
2019-06-08T02:24:09.121Z,98695.00
2019-06-08T02:26:39.708Z,98701.00
2019-06-08T02:29:09.662Z,98699.00
2019-06-08T02:31:42.100Z,98719.00
2019-06-08T02:34:11.888Z,98704.00
2019-06-08T02:36:41.564Z,98708.00
2019-06-08T02:39:11.276Z,98723.00
2019-06-08T02:41:41.327Z,98712.00
2019-06-08T02:44:10.981Z,98725.00
2019-06-08T02:46:40.792Z,98714.00
2019-06-08T02:49:10.442Z,98723.00
2019-06-08T02:51:41.149Z,98720.00
2019-06-08T02:54:13.490Z,98717.00
2019-06-08T02:56:44.590Z,98713.00
2019-06-08T02:59:18.679Z,98726.00
2019-06-08T03:01:51.111Z,98716.00
2019-06-08T03:04:22.433Z,98719.00
2019-06-08T03:06:53.791Z,98712.00
2019-06-08T03:09:27.545Z,98709.00
2019-06-08T03:11:57.230Z,98711.00
2019-06-08T03:14:28.926Z,98721.00
2019-06-08T03:17:00.323Z,98724.00
2019-06-08T03:19:31.272Z,98718.00
2019-06-08T03:22:01.564Z,98722.00
2019-06-08T03:24:32.483Z,98719.00
2019-06-08T03:27:04.166Z,98726.00
2019-06-08T03:29:34.963Z,98722.00
2019-06-08T03:32:05.520Z,98722.00
2019-06-08T03:34:39.777Z,98725.00
2019-06-08T03:37:06.707Z,98735.00
2019-06-08T03:39:37.003Z,98736.00
2019-06-08T03:42:07.244Z,98747.00
2019-06-08T03:44:38.434Z,98749.00
2019-06-08T03:47:08.458Z,98745.00
2019-06-08T03:49:48.774Z,98741.00
2019-06-08T03:52:12.430Z,98750.00
2019-06-08T03:54:43.055Z,98752.00
2019-06-08T03:57:13.787Z,98759.00
2019-06-08T03:59:45.608Z,98766.00
2019-06-08T04:02:14.857Z,98762.00
2019-06-08T04:04:46.274Z,98766.00
2019-06-08T04:07:16.006Z,98768.00
2019-06-08T04:09:46.008Z,98774.00
2019-06-08T04:12:17.326Z,98783.00
2019-06-08T04:14:50.089Z,98784.00
2019-06-08T04:17:19.797Z,98791.00
2019-06-08T04:20:06.321Z,98798.00
2019-06-08T04:22:20.975Z,98799.00
2019-06-08T04:24:50.766Z,98792.00
2019-06-08T04:27:20.504Z,98796.00
2019-06-08T04:29:50.290Z,98796.00
2019-06-08T04:32:20.039Z,98806.00
2019-06-08T04:34:50.069Z,98811.00
2019-06-08T04:37:19.899Z,98816.00
2019-06-08T04:39:50.911Z,98816.00
2019-06-08T04:42:21.149Z,98820.00
2019-06-08T04:44:50.835Z,98822.00
2019-06-08T04:47:20.507Z,98827.00
2019-06-08T04:49:50.370Z,98825.00
2019-06-08T04:52:20.023Z,98826.00
2019-06-08T04:54:49.958Z,98843.00
2019-06-08T04:57:19.780Z,98844.00
2019-06-08T04:59:50.459Z,98850.00
2019-06-08T05:02:20.285Z,98857.00
2019-06-08T05:04:50.088Z,98859.00
2019-06-08T05:07:19.965Z,98860.00
2019-06-08T05:09:49.639Z,98859.00
2019-06-08T05:12:19.402Z,98867.00
2019-06-08T05:14:49.345Z,98884.00
2019-06-08T05:17:19.143Z,98879.00
2019-06-08T05:19:50.559Z,98886.00
2019-06-08T05:22:20.233Z,98882.00
2019-06-08T05:24:50.181Z,98876.00
2019-06-08T05:27:20.183Z,98887.00
2019-06-08T05:29:50.186Z,98889.00
2019-06-08T05:32:19.877Z,98891.00
2019-06-08T05:34:49.782Z,98885.00
2019-06-08T05:37:19.724Z,98887.00
2019-06-08T05:39:49.956Z,98891.00
2019-06-08T05:42:19.839Z,98892.00
2019-06-08T05:44:50.272Z,98823.00
2019-06-08T05:47:20.575Z,98892.00
2019-06-08T05:49:50.255Z,98907.00
2019-06-08T05:52:19.994Z,98897.00
2019-06-08T05:54:51.141Z,98903.00
2019-06-08T05:57:20.842Z,98901.00
2019-06-08T05:59:50.538Z,98906.00
2019-06-08T06:02:20.240Z,98908.00
2019-06-08T06:04:52.257Z,98901.00
2019-06-08T06:07:21.436Z,98917.00
2019-06-08T06:09:51.281Z,98921.00
2019-06-08T06:12:21.282Z,98910.00
2019-06-08T06:14:51.295Z,98928.00
2019-06-08T06:17:21.208Z,98929.00
2019-06-08T06:19:52.839Z,98932.00
2019-06-08T06:22:23.515Z,98939.00
2019-06-08T06:24:53.314Z,98944.00
2019-06-08T06:27:23.276Z,98934.00
2019-06-08T06:29:54.351Z,98950.00
2019-06-08T06:32:24.064Z,98961.00
2019-06-08T06:34:53.796Z,98960.00
2019-06-08T06:37:23.630Z,98967.00
2019-06-08T06:39:53.303Z,98965.00
2019-06-08T06:42:24.961Z,98966.00
2019-06-08T06:44:54.739Z,98977.00
2019-06-08T06:47:24.416Z,98983.00
2019-06-08T06:49:54.196Z,98987.00
2019-06-08T06:52:23.874Z,98989.00
2019-06-08T06:54:53.637Z,99005.00
2019-06-08T06:57:23.322Z,99003.00
2019-06-08T06:59:54.186Z,99006.00
2019-06-08T07:02:24.242Z,99021.00
2019-06-08T07:04:54.390Z,99024.00
2019-06-08T07:07:24.264Z,99036.00
2019-06-08T07:09:54.885Z,99049.00
2019-06-08T07:12:24.993Z,99058.00
2019-06-08T07:14:55.514Z,99057.00
2019-06-08T07:17:25.470Z,99051.00
2019-06-08T07:19:55.159Z,99062.00
2019-06-08T07:22:25.335Z,99082.00
2019-06-08T07:24:55.134Z,99090.00
2019-06-08T07:27:24.820Z,99083.00
2019-06-08T07:29:54.785Z,99099.00
2019-06-08T07:32:24.843Z,99104.00
2019-06-08T07:34:55.327Z,99107.00
2019-06-08T07:37:25.391Z,99117.00
2019-06-08T07:39:56.181Z,99123.00
2019-06-08T07:42:26.023Z,99127.00
2019-06-08T07:44:55.942Z,99129.00
2019-06-08T07:47:25.609Z,99145.00
2019-06-08T07:49:55.671Z,99141.00
2019-06-08T07:52:25.575Z,99170.00
2019-06-08T07:54:56.552Z,99148.00
2019-06-08T07:57:26.617Z,99161.00
2019-06-08T07:59:56.464Z,99168.00
2019-06-08T08:02:26.480Z,99173.00
2019-06-08T08:04:56.727Z,99175.00
2019-06-08T08:07:26.565Z,99191.00
2019-06-08T08:09:56.971Z,99213.00
2019-06-08T08:12:27.014Z,99200.00
2019-06-08T08:14:58.085Z,99205.00
2019-06-08T08:17:28.166Z,99208.00
2019-06-08T08:19:59.309Z,99208.00
2019-06-08T08:22:29.875Z,99204.00
2019-06-08T08:25:03.268Z,99220.00
2019-06-08T08:27:31.233Z,99232.00
2019-06-08T08:30:02.116Z,99229.00
2019-06-08T08:32:31.974Z,99246.00
2019-06-08T08:35:03.055Z,99244.00
2019-06-08T08:37:37.900Z,99246.00
2019-06-08T08:40:09.550Z,99256.00
2019-06-08T08:42:39.200Z,99260.00
2019-06-08T08:45:09.685Z,99271.00
2019-06-08T08:47:39.378Z,99266.00
2019-06-08T08:50:10.144Z,99266.00
2019-06-08T08:52:40.846Z,99288.00
2019-06-08T08:55:11.203Z,99289.00
2019-06-08T08:57:41.573Z,99299.00
2019-06-08T09:00:13.769Z,99294.00
2019-06-08T09:02:43.450Z,99316.00
2019-06-08T09:05:13.456Z,99306.00
2019-06-08T09:07:43.142Z,99323.00
2019-06-08T09:10:18.136Z,99326.00
2019-06-08T09:12:48.615Z,99336.00
2019-06-08T09:15:23.020Z,99345.00
2019-06-08T09:17:53.931Z,99352.00
2019-06-08T09:20:25.214Z,99360.00
2019-06-08T09:23:03.064Z,99380.00
2019-06-08T09:25:28.028Z,99365.00
2019-06-08T09:28:02.866Z,99393.00
2019-06-08T09:30:31.219Z,99410.00
2019-06-08T09:33:02.506Z,99393.00
2019-06-08T09:35:32.519Z,99392.00
2019-06-08T09:38:04.581Z,99395.00
2019-06-08T09:40:33.718Z,99407.00
2019-06-08T09:43:09.175Z,99429.00
2019-06-08T09:45:34.862Z,99423.00
2019-06-08T09:48:06.453Z,99416.00
2019-06-08T09:50:38.469Z,99425.00
2019-06-08T09:53:23.272Z,99438.00
2019-06-08T09:55:41.370Z,99442.00
2019-06-08T09:58:11.776Z,99442.00
2019-06-08T10:00:41.861Z,99452.00
2019-06-08T10:03:13.115Z,99465.00
2019-06-08T10:05:42.788Z,99466.00
2019-06-08T10:08:13.661Z,99475.00
2019-06-08T10:10:43.357Z,99484.00
2019-06-08T10:13:13.354Z,99495.00
2019-06-08T10:15:43.131Z,99486.00
2019-06-08T10:18:12.817Z,99495.00
2019-06-08T10:20:42.495Z,99507.00
2019-06-08T10:23:28.114Z,99509.00
2019-06-08T10:25:43.710Z,99503.00
2019-06-08T10:28:19.147Z,99524.00
2019-06-08T10:30:48.390Z,99521.00
2019-06-08T10:33:18.567Z,99514.00
2019-06-08T10:35:48.865Z,99517.00
2019-06-08T10:38:19.567Z,99528.00
2019-06-08T10:41:09.174Z,99532.00
2019-06-08T10:43:34.831Z,99535.00
2019-06-08T10:46:09.988Z,99550.00
2019-06-08T10:48:37.924Z,99556.00
2019-06-08T10:51:12.489Z,99569.00
2019-06-08T10:53:49.161Z,99584.00
2019-06-08T10:56:12.330Z,99585.00
2019-06-08T10:58:44.270Z,99578.00
2019-06-08T11:01:14.153Z,99589.00
2019-06-08T11:03:43.923Z,99598.00
2019-06-08T11:06:13.775Z,99603.00
2019-06-08T11:08:43.713Z,99606.00
2019-06-08T11:11:13.590Z,99612.00
2019-06-08T11:13:43.224Z,99606.00
2019-06-08T11:16:13.630Z,99621.00
2019-06-08T11:18:43.861Z,99636.00
2019-06-08T11:21:13.592Z,99631.00
2019-06-08T11:24:04.677Z,99637.00
2019-06-08T11:26:23.952Z,99641.00
2019-06-08T11:28:51.286Z,99645.00
2019-06-08T11:31:21.449Z,99648.00
2019-06-08T11:33:51.207Z,99660.00
2019-06-08T11:36:20.897Z,99659.00
2019-06-08T11:38:50.552Z,99665.00
2019-06-08T11:41:22.786Z,99664.00
2019-06-08T11:43:51.758Z,99683.00
2019-06-08T11:46:22.271Z,99676.00
2019-06-08T11:48:52.203Z,99697.00
2019-06-08T11:51:21.989Z,99693.00
2019-06-08T11:53:52.499Z,99707.00
2019-06-08T11:56:24.618Z,99703.00
2019-06-08T11:58:57.820Z,99709.00
2019-06-08T12:01:27.728Z,99702.00
2019-06-08T12:03:58.010Z,99721.00
2019-06-08T12:06:27.784Z,99709.00
2019-06-08T12:09:00.142Z,99721.00
2019-06-08T12:11:28.871Z,99725.00
2019-06-08T12:13:58.619Z,99729.00
2019-06-08T12:16:28.456Z,99726.00
2019-06-08T12:18:58.735Z,99730.00
2019-06-08T12:21:28.427Z,99756.00
2019-06-08T12:23:58.111Z,99740.00
2019-06-08T12:26:28.411Z,99741.00
2019-06-08T12:29:01.267Z,99754.00
2019-06-08T12:31:30.691Z,99759.00
2019-06-08T12:34:00.696Z,99754.00
2019-06-08T12:36:30.742Z,99775.00
2019-06-08T12:39:02.326Z,99771.00
2019-06-08T12:41:33.203Z,99773.00
2019-06-08T12:44:02.903Z,99789.00
2019-06-08T12:46:33.741Z,99783.00
2019-06-08T12:49:03.470Z,99793.00
2019-06-08T12:51:33.135Z,99795.00
2019-06-08T12:54:02.821Z,99809.00
2019-06-08T12:56:32.510Z,99808.00
2019-06-08T12:59:02.177Z,99826.00
2019-06-08T13:01:33.094Z,99822.00
2019-06-08T13:04:02.713Z,99819.00
2019-06-08T13:06:32.416Z,99825.00
2019-06-08T13:09:02.083Z,99848.00
2019-06-08T13:11:31.877Z,99856.00
2019-06-08T13:14:02.156Z,99844.00
2019-06-08T13:16:33.292Z,99849.00
2019-06-08T13:19:03.000Z,99845.00
2019-06-08T13:21:35.407Z,99841.00
2019-06-08T13:24:04.115Z,99860.00
2019-06-08T13:26:34.116Z,99864.00
2019-06-08T13:29:03.705Z,99860.00
2019-06-08T13:31:33.375Z,99860.00
2019-06-08T13:34:03.081Z,99883.00
2019-06-08T13:36:32.750Z,99872.00
2019-06-08T13:39:02.503Z,99882.00
2019-06-08T13:41:32.340Z,99892.00
2019-06-08T13:44:02.077Z,99887.00
2019-06-08T13:46:31.743Z,99892.00
2019-06-08T13:49:01.465Z,99909.00
2019-06-08T13:51:31.705Z,99863.00
2019-06-08T13:54:01.452Z,99896.00
2019-06-08T13:56:31.134Z,99903.00
2019-06-08T13:59:00.620Z,99892.00
2019-06-08T14:01:30.974Z,99903.00
2019-06-08T14:04:01.188Z,99893.00
2019-06-08T14:06:31.068Z,99897.00
2019-06-08T14:09:01.044Z,99864.00
2019-06-08T14:11:30.767Z,99905.00
2019-06-08T14:14:01.993Z,99912.00
2019-06-08T14:16:31.711Z,99911.00
2019-06-08T14:19:01.533Z,99926.00
2019-06-08T14:21:40.089Z,99909.00
2019-06-08T14:24:02.766Z,99917.00
2019-06-08T14:26:34.098Z,99929.00
2019-06-08T14:29:03.759Z,99934.00
2019-06-08T14:31:34.686Z,99927.00
2019-06-08T14:34:04.379Z,99938.00
2019-06-08T14:36:34.107Z,99950.00
2019-06-08T14:39:10.396Z,99947.00
2019-06-08T14:41:38.170Z,99949.00
2019-06-08T14:44:08.323Z,99955.00
2019-06-08T14:46:41.440Z,99958.00
2019-06-08T14:49:09.996Z,99955.00
2019-06-08T14:51:49.212Z,99970.00
2019-06-08T14:54:25.088Z,99955.00
2019-06-08T14:56:54.947Z,99968.00
2019-06-08T14:59:27.837Z,99981.00
2019-06-08T15:01:58.262Z,99979.00
2019-06-08T15:04:34.136Z,99991.00
2019-06-08T15:06:59.450Z,99986.00
2019-06-08T15:09:29.892Z,99989.00
2019-06-08T15:11:59.581Z,99988.00
2019-06-08T15:14:34.628Z,100006.00
2019-06-08T15:17:08.579Z,100004.00
2019-06-08T15:19:38.248Z,100012.00
2019-06-08T15:22:11.281Z,100021.00
2019-06-08T15:24:40.562Z,100030.00
2019-06-08T15:27:12.374Z,100040.00
2019-06-08T15:29:42.158Z,100032.00
2019-06-08T15:32:11.986Z,100038.00
2019-06-08T15:34:41.680Z,100043.00
2019-06-08T15:37:12.834Z,100047.00
2019-06-08T15:39:42.520Z,100051.00
2019-06-08T15:42:12.242Z,100043.00
2019-06-08T15:44:41.998Z,100054.00
2019-06-08T15:47:12.942Z,100011.00
2019-06-08T15:49:42.627Z,100050.00
2019-06-08T15:52:34.167Z,100054.00
2019-06-08T15:55:04.764Z,100055.00
2019-06-08T15:57:38.067Z,100064.00
2019-06-08T16:00:10.349Z,100067.00
2019-06-08T16:02:41.406Z,100057.00
2019-06-08T16:05:11.987Z,100068.00
2019-06-08T16:07:42.867Z,100055.00
2019-06-08T16:10:13.787Z,100064.00
2019-06-08T16:12:45.083Z,100062.00
2019-06-08T16:15:15.247Z,100061.00
2019-06-08T16:17:45.527Z,100063.00
2019-06-08T16:20:16.516Z,100067.00
2019-06-08T16:22:47.072Z,100063.00
2019-06-08T16:25:17.260Z,100074.00
2019-06-08T16:27:47.014Z,100077.00
2019-06-08T16:30:18.149Z,100075.00
2019-06-08T16:32:49.004Z,100076.00
2019-06-08T16:35:19.207Z,100077.00
2019-06-08T16:37:50.463Z,100079.00
2019-06-08T16:40:21.425Z,100083.00
2019-06-08T16:42:52.279Z,100082.00
2019-06-08T16:45:23.045Z,100074.00
2019-06-08T16:47:53.792Z,100081.00
2019-06-08T16:50:25.028Z,100076.00
2019-06-08T16:52:55.153Z,100069.00
2019-06-08T16:55:27.715Z,100083.00
2019-06-08T16:57:58.242Z,100068.00
2019-06-08T17:00:31.143Z,100070.00
2019-06-08T17:03:01.633Z,100081.00
2019-06-08T17:05:33.194Z,100095.00
2019-06-08T17:08:03.959Z,100077.00
2019-06-08T17:10:34.864Z,100100.00
2019-06-08T17:13:05.832Z,100090.00
2019-06-08T17:15:38.318Z,100094.00
2019-06-08T17:18:10.516Z,100095.00
2019-06-08T17:21:03.495Z,100101.00
2019-06-08T17:23:34.459Z,100114.00
2019-06-08T17:26:04.602Z,100119.00
2019-06-08T17:28:35.379Z,100107.00
2019-06-08T17:31:06.148Z,100124.00
2019-06-08T17:33:37.276Z,100119.00
2019-06-08T17:36:09.412Z,100119.00
2019-06-08T17:38:41.485Z,100126.00
2019-06-08T17:41:12.498Z,100131.00
2019-06-08T17:43:42.912Z,100147.00
2019-06-08T17:46:13.449Z,100152.00
2019-06-08T17:48:44.509Z,100162.00
2019-06-08T17:51:15.118Z,100162.00
2019-06-08T17:53:45.915Z,100161.00
2019-06-08T17:56:17.896Z,100168.00
2019-06-08T17:58:50.989Z,100185.00
2019-06-08T18:01:21.636Z,100181.00
2019-06-08T18:03:53.123Z,100152.00
2019-06-08T18:06:24.088Z,100168.00
2019-06-08T18:08:55.147Z,100176.00
2019-06-08T18:11:27.539Z,100171.00
2019-06-08T18:13:58.875Z,100189.00
2019-06-08T18:16:29.875Z,100192.00
2019-06-08T18:19:00.472Z,100188.00
2019-06-08T18:21:31.285Z,100196.00
2019-06-08T18:24:02.725Z,100200.00
2019-06-08T18:26:34.352Z,100198.00
2019-06-08T18:29:07.792Z,100216.00
2019-06-08T18:31:40.243Z,100208.00
2019-06-08T18:34:11.080Z,100214.00
2019-06-08T18:36:42.511Z,100216.00
2019-06-08T18:39:14.040Z,100199.00
2019-06-08T18:41:46.000Z,100222.00
2019-06-08T18:44:17.819Z,100224.00
2019-06-08T18:46:50.948Z,100216.00
2019-06-08T18:49:21.788Z,100223.00
2019-06-08T18:51:54.086Z,100236.00
2019-06-08T18:54:27.619Z,100234.00
2019-06-08T18:57:05.918Z,100239.00
2019-06-08T18:59:41.851Z,100247.00
2019-06-08T19:02:10.109Z,100237.00
2019-06-08T19:04:41.791Z,100255.00
2019-06-08T19:07:13.349Z,100261.00
2019-06-08T19:09:47.554Z,100193.00
2019-06-08T19:12:19.551Z,100252.00
2019-06-08T19:14:52.378Z,100260.00
2019-06-08T19:17:22.777Z,100256.00
2019-06-08T19:19:54.817Z,100262.00
2019-06-08T19:22:47.709Z,100265.00
2019-06-08T19:25:17.673Z,100265.00
2019-06-08T19:27:53.174Z,100267.00
2019-06-08T19:30:24.330Z,100278.00
2019-06-08T19:32:53.242Z,100274.00
2019-06-08T19:35:23.668Z,100288.00
2019-06-08T19:37:54.805Z,100286.00
2019-06-08T19:40:27.165Z,100288.00
2019-06-08T19:43:01.302Z,100287.00
2019-06-08T19:45:30.788Z,100283.00
2019-06-08T19:48:01.941Z,100292.00
2019-06-08T19:50:33.058Z,100292.00
2019-06-08T19:53:07.230Z,100308.00
2019-06-08T19:55:37.736Z,100302.00
2019-06-08T19:58:09.385Z,100305.00
2019-06-08T20:00:41.088Z,100306.00
2019-06-08T20:03:13.008Z,100318.00
2019-06-08T20:05:45.198Z,100309.00
2019-06-08T20:08:17.411Z,100320.00
2019-06-08T20:10:49.602Z,100332.00
2019-06-08T20:13:21.015Z,100330.00
2019-06-08T20:15:57.306Z,100339.00
2019-06-08T20:18:24.638Z,100339.00
2019-06-08T20:20:58.429Z,100344.00
2019-06-08T20:23:28.877Z,100355.00
2019-06-08T20:26:00.816Z,100358.00
2019-06-08T20:28:31.480Z,100355.00
2019-06-08T20:31:02.333Z,100359.00
2019-06-08T20:33:33.576Z,100374.00
2019-06-08T20:36:04.606Z,100368.00
2019-06-08T20:38:41.445Z,100382.00
2019-06-08T20:41:07.978Z,100380.00
2019-06-08T20:43:41.239Z,100374.00
2019-06-08T20:46:13.163Z,100385.00
2019-06-08T20:48:44.247Z,100388.00
2019-06-08T20:51:17.106Z,100383.00
2019-06-08T20:53:50.935Z,100396.00
2019-06-08T20:56:24.451Z,100390.00
2019-06-08T20:59:29.599Z,100393.00
2019-06-08T21:01:48.928Z,100394.00
2019-06-08T21:04:20.883Z,100399.00
2019-06-08T21:06:52.825Z,100391.00
2019-06-08T21:09:23.812Z,100402.00
2019-06-08T21:11:56.344Z,100400.00
2019-06-08T21:14:27.413Z,100405.00
2019-06-08T21:16:59.007Z,100407.00
2019-06-08T21:19:30.691Z,100419.00
2019-06-08T21:22:02.273Z,100421.00
2019-06-08T21:24:37.005Z,100423.00
2019-06-08T21:27:08.331Z,100417.00
2019-06-08T21:29:49.407Z,100418.00
2019-06-08T21:32:17.575Z,100422.00
2019-06-08T21:34:50.838Z,100429.00
2019-06-08T21:37:20.830Z,100425.00
2019-06-08T21:39:55.352Z,100430.00
2019-06-08T21:42:24.346Z,100423.00
2019-06-08T21:44:59.418Z,100426.00
2019-06-08T21:47:32.191Z,100426.00
2019-06-08T21:50:03.034Z,100430.00
2019-06-08T21:52:35.101Z,100437.00
2019-06-08T21:55:07.387Z,100439.00
2019-06-08T21:57:38.148Z,100444.00
2019-06-08T22:00:34.707Z,100444.00
2019-06-08T22:02:42.979Z,100448.00
2019-06-08T22:05:13.961Z,100450.00
2019-06-08T22:07:44.393Z,100465.00
2019-06-08T22:10:17.817Z,100462.00
2019-06-08T22:12:51.805Z,100462.00
2019-06-08T22:15:24.507Z,100467.00
2019-06-08T22:17:55.063Z,100461.00
2019-06-08T22:20:27.395Z,100475.00
2019-06-08T22:22:59.326Z,100479.00
2019-06-08T22:25:29.322Z,100460.00
2019-06-08T22:28:00.952Z,100471.00
2019-06-08T22:30:39.155Z,100465.00
2019-06-08T22:33:03.961Z,100472.00
2019-06-08T22:35:34.423Z,100473.00
2019-06-08T22:38:05.035Z,100476.00
2019-06-08T22:40:37.087Z,100479.00
2019-06-08T22:43:08.228Z,100476.00
2019-06-08T22:45:39.727Z,100479.00
2019-06-08T22:48:10.358Z,100482.00
2019-06-08T22:50:42.617Z,100484.00
2019-06-08T22:53:14.802Z,100484.00
2019-06-08T22:55:47.716Z,100490.00
2019-06-08T22:58:19.416Z,100488.00
2019-06-08T23:00:53.011Z,100490.00
2019-06-08T23:03:22.904Z,100486.00
2019-06-08T23:05:54.869Z,100492.00
2019-06-08T23:08:27.092Z,100495.00
2019-06-08T23:11:03.733Z,100487.00
2019-06-08T23:13:37.685Z,100494.00
2019-06-08T23:16:09.480Z,100498.00
2019-06-08T23:18:41.749Z,100502.00
2019-06-08T23:21:13.199Z,100506.00
2019-06-08T23:23:43.940Z,100511.00
2019-06-08T23:26:15.021Z,100507.00
2019-06-08T23:28:47.139Z,100513.00
2019-06-08T23:31:24.968Z,100511.00
2019-06-08T23:33:52.988Z,100512.00
2019-06-08T23:36:46.736Z,100505.00
2019-06-08T23:38:57.251Z,100510.00
2019-06-08T23:41:28.081Z,100516.00
2019-06-08T23:43:59.532Z,100511.00
2019-06-08T23:46:30.023Z,100509.00
2019-06-08T23:49:03.915Z,100518.00
2019-06-08T23:51:38.105Z,100527.00
2019-06-08T23:54:12.042Z,100524.00
2019-06-08T23:56:50.200Z,100526.00
2019-06-08T23:59:21.499Z,100532.00
